Time;durP1;ratioP1;P1;durP2;ratioP2;P2;SDS_P1;SDS_P2;PMS_P1;PMS_P2;Temp;Humidity;BMP_temperature;BMP_pressure;BME280_temperature;BME280_humidity;BME280_pressure;Samples;Min_cycle;Max_cycle;Signal;HPM_P1;HPM_P2
2022/07/10 00:01:33;;;;;;;;;;;;;;;;;;5021176;28;19906;-91
2022/07/10 00:04:01;;;;;;;;;;;;;;;;;;5020653;28;19906;-92
2022/07/10 00:06:55;;;;;;;;;;;;;;;;;;5020079;28;19925;-94
2022/07/10 00:09:24;;;;;;;;;;;;;;;;;;5035834;28;19916;-93
2022/07/10 00:12:00;;;;;;;;;;;;;;;;;;5017060;28;19955;-93
2022/07/10 00:14:34;;;;;;;;;;;;;;;;;;5028557;28;19914;-92
2022/07/10 00:17:08;;;;;;;;;;;;;;;;;;5015288;28;19952;-94
2022/07/10 00:19:33;;;;;;;;;;;;;;;;;;5015281;28;19910;-94
2022/07/10 00:22:12;;;;;;;;;;;;;;;;;;5014823;28;19920;-93
2022/07/10 00:24:40;;;;;;;;;;;;;;;;;;5013500;28;19914;-95
2022/07/10 00:27:17;;;;;;;;;;;;;;;;;;4997565;28;19941;-93
2022/07/10 00:29:43;;;;;;;;;;;;;;;;;;5014399;28;19914;-95
2022/07/10 00:32:35;;;;;;;;;;;;;;;;;;5012711;28;19914;-95
2022/07/10 00:35:43;;;;;;;;;;;;;;;;;;;;;
2022/07/10 00:38:18;;;;;;;;;;;;;;;;;;4994767;28;19941;-94
2022/07/10 00:40:49;;;;;;;;;;;;;;;;;;5009203;28;19941;-94
2022/07/10 00:43:18;;;;;;;;;;;;;;;;;;5008066;28;20336;-95
2022/07/10 00:45:44;;;;;;;;;;;;;;;;;;5006942;28;19921;-93
2022/07/10 00:48:34;;;;;;;;;;;;;;;;;;4976657;29;19938;-94
2022/07/10 00:51:16;;;;;;;;;;;;;;;;;;4975062;29;19922;-94
2022/07/10 00:53:47;;;;;;;;;;;;;;;;;;4973845;29;19910;-94
2022/07/10 00:59:05;;;;;;;;;;;;;;;;;;4971130;28;19977;-94
2022/07/10 01:04:56;;;;;;;;;;;;;;;;;;4966806;28;20179;-94
2022/07/10 01:08:06;;;;;;;;;;;;;;;;;;4974471;28;19971;-92
2022/07/10 01:10:39;;;;;;;;;;;;;;;;;;5003840;28;19942;-94
2022/07/10 01:13:37;;;;;;;;;;;;;;;;;;4973880;28;19930;-93
2022/07/10 01:16:10;;;;;;;;;;;;;;;;;;4989708;28;19914;-90
2022/07/10 01:18:38;;;;;;;;;;;;;;;;;;4974337;28;19918;-92
2022/07/10 01:21:17;;;;;;;;;;;;;;;;;;;;;
2022/07/10 01:26:45;;;;;;;;;;;;;;;;;;4971517;29;19921;-93
2022/07/10 01:29:13;;;;;;;;;;;;;;;;;;4970931;28;19939;-92
2022/07/10 01:31:46;;;;;;;;;;;;;;;;;;4971201;28;19914;-93
2022/07/10 01:34:45;;;;;;;;;;;;;;;;;;;;;
2022/07/10 01:38:11;;;;;;;;;;;;;;;;;;4892796;29;19941;-94
2022/07/10 01:43:42;;;;;;;;;;;;;;;;;;4825283;29;19923;-95
2022/07/10 01:46:17;;;;;;;;;;;;;;;;;;4859318;29;19916;-94
2022/07/10 01:48:53;;;;;;;;;;;;;;;;;;4873427;29;20310;-93
2022/07/10 01:52:02;;;;;;;;;;;;;;;;;;4871854;29;19920;-95
2022/07/10 01:54:31;;;;;;;;;;;;;;;;;;4863504;29;19916;-92
2022/07/10 01:57:13;;;;;;;;;;;;;;;;;;4882254;29;19983;-94
2022/07/10 01:59:39;;;;;;;;;;;;;;;;;;4868683;29;19919;-93
2022/07/10 02:02:10;;;;;;;;;;;;;;;;;;4885557;29;19920;-93
2022/07/10 02:04:47;;;;;;;;;;;;;;;;;;4887219;29;19935;-94
2022/07/10 02:07:25;;;;;;;;;;;;;;;;;;4887932;29;19911;-94
2022/07/10 02:09:56;;;;;;;;;;;;;;;;;;4887992;29;19971;-94
2022/07/10 02:12:27;;;;;;;;;;;;;;;;;;4887779;29;19911;-94
2022/07/10 02:15:08;;;;;;;;;;;;;;;;;;4952911;28;19970;-93
2022/07/10 02:17:37;;;;;;;;;;;;;;;;;;4955555;29;19925;-93
2022/07/10 02:20:21;;;;;;;;;;;;;;;;;;4957854;29;19902;-93
2022/07/10 02:22:56;;;;;;;;;;;;;;;;;;4957034;29;19915;-93
2022/07/10 02:25:27;;;;;;;;;;;;;;;;;;4971950;28;19922;-93
2022/07/10 02:27:53;;;;;;;;;;;;;;;;;;4958379;29;19921;-93
2022/07/10 02:33:17;;;;;;;;;;;;;;;;;;4986429;28;19950;-93
2022/07/10 02:35:43;;;;;;;;;;;;;;;;;;4973018;23;19927;-82
2022/07/10 02:38:08;;;;;;;;;;;;;;;;;;4976847;28;19921;-81
2022/07/10 02:40:34;;;;;;;;;;;;;;;;;;4962416;28;19914;-82
2022/07/10 02:43:00;;;;;;;;;;;;;;;;;;4968538;28;19914;-80
2022/07/10 02:45:26;;;;;;;;;;;;;;;;;;4969107;29;19914;-81
2022/07/10 02:47:52;;;;;;;;;;;;;;;;;;4970647;28;19965;-81
2022/07/10 02:50:18;;;;;;;;;;;;;;;;;;4972708;29;19914;-81
2022/07/10 02:52:50;;;;;;;;;;;;;;;;;;4990392;28;19921;-81
2022/07/10 02:55:19;;;;;;;;;;;;;;;;;;4991119;28;20006;-81
2022/07/10 02:57:48;;;;;;;;;;;;;;;;;;5005817;28;19898;-81
2022/07/10 03:00:16;;;;;;;;;;;;;;;;;;5006077;28;19950;-82
2022/07/10 03:02:45;;;;;;;;;;;;;;;;;;5003042;28;19921;-81
2022/07/10 03:05:12;;;;;;;;;;;;;;;;;;4957016;28;19922;-81
2022/07/10 03:07:47;;;;;;;;;;;;;;;;;;5001343;28;19914;-80
2022/07/10 03:10:13;;;;;;;;;;;;;;;;;;5004739;28;19949;-81
2022/07/10 03:12:39;;;;;;;;;;;;;;;;;;4988814;28;19933;-81
2022/07/10 03:15:05;;;;;;;;;;;;;;;;;;4989177;28;19914;-83
2022/07/10 03:17:31;;;;;;;;;;;;;;;;;;4988118;28;20005;-80
2022/07/10 03:19:57;;;;;;;;;;;;;;;;;;5003516;28;19918;-81
2022/07/10 03:22:23;;;;;;;;;;;;;;;;;;4988054;28;19922;-82
2022/07/10 03:24:49;;;;;;;;;;;;;;;;;;4988665;28;19962;-81
2022/07/10 03:27:15;;;;;;;;;;;;;;;;;;4988430;28;19914;-80
2022/07/10 03:29:41;;;;;;;;;;;;;;;;;;5006229;28;19930;-81
2022/07/10 03:32:09;;;;;;;;;;;;;;;;;;5005210;28;19918;-81
2022/07/10 03:34:35;;;;;;;;;;;;;;;;;;4968752;29;19914;-81
2022/07/10 03:37:05;;;;;;;;;;;;;;;;;;4971722;29;19990;-81
2022/07/10 03:39:30;;;;;;;;;;;;;;;;;;4986803;28;19957;-81
2022/07/10 03:41:56;;;;;;;;;;;;;;;;;;4986394;28;19918;-81
2022/07/10 03:44:28;;;;;;;;;;;;;;;;;;4972681;29;19934;-81
2022/07/10 03:47:04;;;;;;;;;;;;;;;;;;4972734;29;20340;-81
2022/07/10 03:49:30;;;;;;;;;;;;;;;;;;5002337;28;19915;-81
2022/07/10 03:51:55;;;;;;;;;;;;;;;;;;5001158;28;19938;-82
2022/07/10 03:54:22;;;;;;;;;;;;;;;;;;4987710;28;20316;-83
2022/07/10 03:59:39;;;;;;;;;;;;;;;;;;4992832;28;19954;-81
2022/07/10 04:02:08;;;;;;;;;;;;;;;;;;4972146;29;19915;-80
2022/07/10 04:04:40;;;;;;;;;;;;;;;;;;5004248;28;19919;-83
2022/07/10 04:07:10;;;;;;;;;;;;;;;;;;5007170;28;19938;-80
2022/07/10 04:09:36;;;;;;;;;;;;;;;;;;4992883;28;19978;-81
2022/07/10 04:12:05;;;;;;;;;;;;;;;;;;4977503;29;19911;-83
2022/07/10 04:14:31;;;;;;;;;;;;;;;;;;4992383;28;19921;-81
2022/07/10 04:17:00;;;;;;;;;;;;;;;;;;4993160;28;20001;-81
2022/07/10 04:19:29;;;;;;;;;;;;;;;;;;4976987;29;19914;-81
2022/07/10 04:21:56;;;;;;;;;;;;;;;;;;5009484;28;19914;-80
2022/07/10 04:24:25;;;;;;;;;;;;;;;;;;4991490;28;20034;-80
2022/07/10 04:26:51;;;;;;;;;;;;;;;;;;5007582;28;19915;-81
2022/07/10 04:29:17;;;;;;;;;;;;;;;;;;5008458;28;19915;-82
2022/07/10 04:31:43;;;;;;;;;;;;;;;;;;4992252;28;19937;-81
2022/07/10 04:34:09;;;;;;;;;;;;;;;;;;4993143;28;19977;-81
2022/07/10 04:36:35;;;;;;;;;;;;;;;;;;4974099;29;19918;-82
2022/07/10 04:39:03;;;;;;;;;;;;;;;;;;4956852;28;19919;-81
2022/07/10 04:41:30;;;;;;;;;;;;;;;;;;4991149;28;19954;-81
2022/07/10 04:43:58;;;;;;;;;;;;;;;;;;4991089;28;19914;-81
2022/07/10 04:46:27;;;;;;;;;;;;;;;;;;5007803;28;20418;-81
2022/07/10 04:48:56;;;;;;;;;;;;;;;;;;4991519;28;19894;-81
2022/07/10 04:51:23;;;;;;;;;;;;;;;;;;5006727;28;19914;-81
2022/07/10 04:53:52;;;;;;;;;;;;;;;;;;4989873;28;19921;-81
2022/07/10 04:56:22;;;;;;;;;;;;;;;;;;4990299;28;19914;-81
2022/07/10 04:58:51;;;;;;;;;;;;;;;;;;5006579;28;19926;-81
2022/07/10 05:01:20;;;;;;;;;;;;;;;;;;4988245;28;19914;-81
2022/07/10 05:03:46;;;;;;;;;;;;;;;;;;4956433;28;19921;-81
2022/07/10 05:06:19;;;;;;;;;;;;;;;;;;5004685;28;20405;-81
2022/07/10 05:08:47;;;;;;;;;;;;;;;;;;4989121;28;19922;-81
2022/07/10 05:11:13;;;;;;;;;;;;;;;;;;4971510;28;20030;-81
2022/07/10 05:13:44;;;;;;;;;;;;;;;;;;5003576;28;19965;-81
2022/07/10 05:16:21;;;;;;;;;;;;;;;;;;4988684;28;19921;-81
2022/07/10 05:18:47;;;;;;;;;;;;;;;;;;5001448;28;19918;-82
2022/07/10 05:21:13;;;;;;;;;;;;;;;;;;4969850;28;20112;-81
2022/07/10 05:23:39;;;;;;;;;;;;;;;;;;5001387;28;19977;-81
2022/07/10 05:26:09;;;;;;;;;;;;;;;;;;4988221;28;20043;-81
2022/07/10 05:28:34;;;;;;;;;;;;;;;;;;5006040;28;19914;-81
2022/07/10 05:31:00;;;;;;;;;;;;;;;;;;5006146;28;19917;-80
2022/07/10 05:33:28;;;;;;;;;;;;;;;;;;5006495;28;19946;-81
2022/07/10 05:35:57;;;;;;;;;;;;;;;;;;4990616;28;19906;-81
2022/07/10 05:38:23;;;;;;;;;;;;;;;;;;4959491;28;19918;-81
2022/07/10 05:40:50;;;;;;;;;;;;;;;;;;4991826;28;19911;-82
2022/07/10 05:43:21;;;;;;;;;;;;;;;;;;5008222;28;19915;-81
2022/07/10 05:45:50;;;;;;;;;;;;;;;;;;4991237;28;19918;-81
2022/07/10 05:48:19;;;;;;;;;;;;;;;;;;4992340;28;19935;-82
2022/07/10 05:50:48;;;;;;;;;;;;;;;;;;5007792;28;19911;-83
2022/07/10 05:53:15;;;;;;;;;;;;;;;;;;4975291;29;20334;-82
2022/07/10 05:55:42;;;;;;;;;;;;;;;;;;5005494;28;19915;-82
2022/07/10 05:58:08;;;;;;;;;;;;;;;;;;4974109;28;19944;-81
2022/07/10 06:00:37;;;;;;;;;;;;;;;;;;4958458;28;20063;-81
2022/07/10 06:03:03;;;;;;;;;;;;;;;;;;4976463;28;19898;-81
2022/07/10 06:05:29;;;;;;;;;;;;;;;;;;5008614;28;19926;-82
2022/07/10 06:08:00;;;;;;;;;;;;;;;;;;5006516;28;19926;-82
2022/07/10 06:10:32;;;;;;;;;;;;;;;;;;4990384;28;19914;-81
2022/07/10 06:12:58;;;;;;;;;;;;;;;;;;4974419;28;19974;-82
2022/07/10 06:15:24;;;;;;;;;;;;;;;;;;4992066;28;19906;-81
2022/07/10 06:17:50;;;;;;;;;;;;;;;;;;5008650;28;19915;-82
2022/07/10 06:20:16;;;;;;;;;;;;;;;;;;4991504;28;20279;-81
2022/07/10 06:22:45;;;;;;;;;;;;;;;;;;4976464;28;19985;-81
2022/07/10 06:25:11;;;;;;;;;;;;;;;;;;4992337;28;19914;-83
2022/07/10 06:27:37;;;;;;;;;;;;;;;;;;4992865;28;19977;-81
2022/07/10 06:30:08;;;;;;;;;;;;;;;;;;5008207;28;19914;-82
2022/07/10 06:32:34;;;;;;;;;;;;;;;;;;4990477;28;19918;-81
2022/07/10 06:35:00;;;;;;;;;;;;;;;;;;4974332;29;19921;-81
2022/07/10 06:37:27;;;;;;;;;;;;;;;;;;5006823;28;19922;-82
2022/07/10 06:39:57;;;;;;;;;;;;;;;;;;4989018;28;19941;-81
2022/07/10 06:42:22;;;;;;;;;;;;;;;;;;4990653;28;19914;-81
2022/07/10 06:44:52;;;;;;;;;;;;;;;;;;5007209;28;19938;-81
2022/07/10 06:50:03;;;;;;;;;;;;;;;;;;4990055;28;19915;-80
2022/07/10 06:52:29;;;;;;;;;;;;;;;;;;4991438;28;19975;-80
2022/07/10 06:54:58;;;;;;;;;;;;;;;;;;4973851;29;19906;-81
2022/07/10 06:57:27;;;;;;;;;;;;;;;;;;4989470;28;19985;-82
2022/07/10 06:59:52;;;;;;;;;;;;;;;;;;5007482;28;19926;-83
2022/07/10 07:02:26;;;;;;;;;;;;;;;;;;4990459;28;19910;-81
2022/07/10 07:04:56;;;;;;;;;;;;;;;;;;5007322;28;19906;-83
2022/07/10 07:07:21;;;;;;;;;;;;;;;;;;5002936;28;19914;-81
2022/07/10 07:09:52;;;;;;;;;;;;;;;;;;4988060;28;19911;-82
2022/07/10 07:12:18;;;;;;;;;;;;;;;;;;4990764;28;19914;-82
2022/07/10 07:14:44;;;;;;;;;;;;;;;;;;4990495;28;19914;-81
2022/07/10 07:17:33;;;;;;;;;;;;;;;;;;4988557;28;20206;-82
2022/07/10 07:25:35;;;;;;;;;;;;;;;;;;4989025;28;19954;-80
2022/07/10 07:28:07;;;;;;;;;;;;;;;;;;4992787;28;19914;-82
2022/07/10 07:30:36;;;;;;;;;;;;;;;;;;5011246;28;19914;-82
2022/07/10 07:33:07;;;;;;;;;;;;;;;;;;4993666;28;19914;-81
2022/07/10 07:35:33;;;;;;;;;;;;;;;;;;5008435;28;19921;-82
2022/07/10 07:37:59;;;;;;;;;;;;;;;;;;4992887;28;19922;-82
2022/07/10 07:40:25;;;;;;;;;;;;;;;;;;4992572;28;20016;-81
2022/07/10 07:42:51;;;;;;;;;;;;;;;;;;4995564;28;19918;-81
2022/07/10 07:45:20;;;;;;;;;;;;;;;;;;4995171;28;19918;-81
2022/07/10 07:47:46;;;;;;;;;;;;;;;;;;5010494;28;19942;-81
2022/07/10 07:50:17;;;;;;;;;;;;;;;;;;4979711;28;19902;-82
2022/07/10 07:52:46;;;;;;;;;;;;;;;;;;4963514;28;19914;-82
2022/07/10 07:55:12;;;;;;;;;;;;;;;;;;4995862;28;19905;-82
2022/07/10 07:57:38;;;;;;;;;;;;;;;;;;5011607;28;19922;-83
2022/07/10 08:00:08;;;;;;;;;;;;;;;;;;5009044;28;19922;-83
2022/07/10 08:02:48;;;;;;;;;;;;;;;;;;4987740;28;19969;-83
2022/07/10 08:05:15;;;;;;;;;;;;;;;;;;4951988;28;19942;-86
2022/07/10 08:07:41;;;;;;;;;;;;;;;;;;5005433;28;19914;-83
2022/07/10 08:10:09;;;;;;;;;;;;;;;;;;4966932;28;20023;-84
2022/07/10 08:12:35;;;;;;;;;;;;;;;;;;4976698;28;20001;-80
2022/07/10 08:15:03;;;;;;;;;;;;;;;;;;4991887;28;19919;-80
2022/07/10 08:17:29;;;;;;;;;;;;;;;;;;4958867;29;20013;-84
2022/07/10 08:19:55;;;;;;;;;;;;;;;;;;4976600;28;19918;-85
2022/07/10 08:22:21;;;;;;;;;;;;;;;;;;4960479;29;19927;-83
2022/07/10 08:24:46;;;;;;;;;;;;;;;;;;4962077;29;19936;-84
2022/07/10 08:27:12;;;;;;;;;;;;;;;;;;4975504;28;19914;-86
2022/07/10 08:29:39;;;;;;;;;;;;;;;;;;4975602;28;19922;-84
2022/07/10 08:32:09;;;;;;;;;;;;;;;;;;4975645;28;19961;-83
2022/07/10 08:34:35;;;;;;;;;;;;;;;;;;4974787;28;19914;-86
2022/07/10 08:37:03;;;;;;;;;;;;;;;;;;4990372;28;19997;-84
2022/07/10 08:39:28;;;;;;;;;;;;;;;;;;4974102;28;19945;-85
2022/07/10 08:44:24;;;;;;;;;;;;;;;;;;4931968;29;20375;-94
2022/07/10 08:46:49;;;;;;;;;;;;;;;;;;4920022;29;19944;-93
2022/07/10 08:49:14;;;;;;;;;;;;;;;;;;4950582;28;19922;-95
2022/07/10 08:51:40;;;;;;;;;;;;;;;;;;4950703;29;19915;-94
2022/07/10 08:54:06;;;;;;;;;;;;;;;;;;4918365;29;19921;-95
2022/07/10 08:56:32;;;;;;;;;;;;;;;;;;4919440;29;19954;-94
2022/07/10 08:59:00;;;;;;;;;;;;;;;;;;4918399;29;19966;-93
2022/07/10 09:01:26;;;;;;;;;;;;;;;;;;4934292;29;19915;-95
2022/07/10 09:03:52;;;;;;;;;;;;;;;;;;4933793;29;19941;-94
2022/07/10 09:06:44;;;;;;;;;;;;;;;;;;4918738;29;19922;-94
2022/07/10 09:09:20;;;;;;;;;;;;;;;;;;4918047;29;19915;-95
2022/07/10 09:11:46;;;;;;;;;;;;;;;;;;4934110;29;19967;-94
2022/07/10 09:14:11;;;;;;;;;;;;;;;;;;4938133;29;19947;-94
2022/07/10 09:16:45;;;;;;;;;;;;;;;;;;4918690;29;20258;-93
2022/07/10 09:19:11;;;;;;;;;;;;;;;;;;4917954;29;19969;-95
2022/07/10 09:21:49;;;;;;;;;;;;;;;;;;4920395;29;19939;-93
2022/07/10 09:24:19;;;;;;;;;;;;;;;;;;4920813;29;19915;-94
2022/07/10 09:26:45;;;;;;;;;;;;;;;;;;4951153;28;20389;-94
2022/07/10 09:29:10;;;;;;;;;;;;;;;;;;4919404;29;19916;-95
2022/07/10 09:31:35;;;;;;;;;;;;;;;;;;4934085;29;19966;-95
2022/07/10 09:34:03;;;;;;;;;;;;;;;;;;4935400;29;20304;-94
2022/07/10 09:36:47;;;;;;;;;;;;;;;;;;4931356;29;19997;-94
2022/07/10 09:39:12;;;;;;;;;;;;;;;;;;4920129;29;19954;-94
2022/07/10 09:41:38;;;;;;;;;;;;;;;;;;4934838;29;19947;-95
2022/07/10 09:44:03;;;;;;;;;;;;;;;;;;4933493;29;19923;-94
2022/07/10 09:46:29;;;;;;;;;;;;;;;;;;4933858;29;20406;-94
2022/07/10 09:49:04;;;;;;;;;;;;;;;;;;4916939;29;19949;-94
2022/07/10 09:51:29;;;;;;;;;;;;;;;;;;4916188;29;19916;-93
2022/07/10 09:53:57;;;;;;;;;;;;;;;;;;4932953;29;20014;-94
2022/07/10 09:56:26;;;;;;;;;;;;;;;;;;4933352;29;19915;-93
2022/07/10 09:58:52;;;;;;;;;;;;;;;;;;4934397;29;19926;-93
2022/07/10 10:01:17;;;;;;;;;;;;;;;;;;4949871;28;19911;-93
2022/07/10 10:03:43;;;;;;;;;;;;;;;;;;4919944;29;19915;-93
2022/07/10 10:06:08;;;;;;;;;;;;;;;;;;4938215;29;19922;-94
2022/07/10 10:08:34;;;;;;;;;;;;;;;;;;4924718;29;19921;-90
2022/07/10 10:10:59;;;;;;;;;;;;;;;;;;4962070;28;19916;-91
2022/07/10 10:13:34;;;;;;;;;;;;;;;;;;4929028;29;19930;-91
2022/07/10 10:16:03;;;;;;;;;;;;;;;;;;4949478;29;19915;-91
2022/07/10 10:18:31;;;;;;;;;;;;;;;;;;4949259;29;19977;-94
2022/07/10 10:21:04;;;;;;;;;;;;;;;;;;4936687;29;19915;-93
2022/07/10 10:23:29;;;;;;;;;;;;;;;;;;4948625;28;19919;-94
2022/07/10 10:25:56;;;;;;;;;;;;;;;;;;4932694;29;19916;-93
2022/07/10 10:28:23;;;;;;;;;;;;;;;;;;4917487;29;19922;-92
2022/07/10 10:30:48;;;;;;;;;;;;;;;;;;4935812;29;19918;-91
2022/07/10 10:33:20;;;;;;;;;;;;;;;;;;4951913;28;19915;-92
2022/07/10 10:35:52;;;;;;;;;;;;;;;;;;4932160;29;19919;-93
2022/07/10 10:38:36;;;;;;;;;;;;;;;;;;4948533;29;19978;-95
2022/07/10 10:41:05;;;;;;;;;;;;;;;;;;4931949;29;19915;-95
2022/07/10 10:43:30;;;;;;;;;;;;;;;;;;4916057;29;19992;-95
2022/07/10 10:45:55;;;;;;;;;;;;;;;;;;4932380;29;19915;-93
2022/07/10 10:48:21;;;;;;;;;;;;;;;;;;4934765;29;19915;-92
2022/07/10 10:50:52;;;;;;;;;;;;;;;;;;4938555;29;20017;-93
2022/07/10 10:53:17;;;;;;;;;;;;;;;;;;4934338;29;19923;-94
2022/07/10 10:55:43;;;;;;;;;;;;;;;;;;4935851;29;20014;-94
2022/07/10 10:58:11;;;;;;;;;;;;;;;;;;4937130;29;19919;-94
2022/07/10 11:00:37;;;;;;;;;;;;;;;;;;4938008;29;19926;-94
2022/07/10 11:03:03;;;;;;;;;;;;;;;;;;4956469;28;19915;-93
2022/07/10 11:05:29;;;;;;;;;;;;;;;;;;4941633;29;20275;-93
2022/07/10 11:07:54;;;;;;;;;;;;;;;;;;4938402;29;19922;-94
2022/07/10 11:10:20;;;;;;;;;;;;;;;;;;4925091;29;20365;-94
2022/07/10 11:12:45;;;;;;;;;;;;;;;;;;4924587;29;19946;-96
2022/07/10 11:15:15;;;;;;;;;;;;;;;;;;4940273;29;19922;-95
2022/07/10 11:17:40;;;;;;;;;;;;;;;;;;4938866;29;19970;-96
2022/07/10 11:20:12;;;;;;;;;;;;;;;;;;4924547;29;19923;-94
2022/07/10 11:22:37;;;;;;;;;;;;;;;;;;4923931;29;20511;-94
2022/07/10 11:25:07;;;;;;;;;;;;;;;;;;4924232;29;19975;-94
2022/07/10 11:27:43;;;;;;;;;;;;;;;;;;4933164;29;19926;-95
2022/07/10 11:30:19;;;;;;;;;;;;;;;;;;4963881;28;20007;-94
2022/07/10 11:32:44;;;;;;;;;;;;;;;;;;4938783;29;19921;-93
2022/07/10 11:35:10;;;;;;;;;;;;;;;;;;4926148;29;19945;-94
2022/07/10 11:37:36;;;;;;;;;;;;;;;;;;4925556;29;19916;-94
2022/07/10 11:40:01;;;;;;;;;;;;;;;;;;4957622;28;19919;-94
2022/07/10 11:42:27;;;;;;;;;;;;;;;;;;4942355;29;19969;-94
2022/07/10 11:44:55;;;;;;;;;;;;;;;;;;4966922;28;19915;-93
2022/07/10 11:47:30;;;;;;;;;;;;;;;;;;4959450;28;19974;-94
2022/07/10 11:49:57;;;;;;;;;;;;;;;;;;4944165;29;19911;-95
2022/07/10 11:52:23;;;;;;;;;;;;;;;;;;4958783;29;20009;-95
2022/07/10 11:54:51;;;;;;;;;;;;;;;;;;4940161;29;19923;-94
2022/07/10 11:57:17;;;;;;;;;;;;;;;;;;4971219;28;19911;-93
2022/07/10 11:59:42;;;;;;;;;;;;;;;;;;4950347;29;19979;-93
2022/07/10 12:02:08;;;;;;;;;;;;;;;;;;4924960;29;20382;-93
2022/07/10 12:04:36;;;;;;;;;;;;;;;;;;4947588;29;19939;-95
2022/07/10 12:07:01;;;;;;;;;;;;;;;;;;4956501;28;19919;-94
2022/07/10 12:09:30;;;;;;;;;;;;;;;;;;4938921;29;19926;-96
2022/07/10 12:11:55;;;;;;;;;;;;;;;;;;4924070;29;20009;-93
2022/07/10 12:14:22;;;;;;;;;;;;;;;;;;4935792;29;20013;-93
2022/07/10 12:16:48;;;;;;;;;;;;;;;;;;4936895;29;19911;-93
2022/07/10 12:19:14;;;;;;;;;;;;;;;;;;4937321;29;19919;-94
2022/07/10 12:21:40;;;;;;;;;;;;;;;;;;4936130;29;20005;-92
2022/07/10 12:24:05;;;;;;;;;;;;;;;;;;4924744;29;20417;-92
2022/07/10 12:26:34;;;;;;;;;;;;;;;;;;4935707;29;19915;-93
2022/07/10 12:29:04;;;;;;;;;;;;;;;;;;4919870;29;19915;-94
2022/07/10 12:31:31;;;;;;;;;;;;;;;;;;4919039;29;20375;-90
2022/07/10 12:33:57;;;;;;;;;;;;;;;;;;4919877;29;19915;-91
2022/07/10 12:36:23;;;;;;;;;;;;;;;;;;4934244;29;19922;-91
2022/07/10 12:38:49;;;;;;;;;;;;;;;;;;4934340;29;19919;-92
2022/07/10 12:41:22;;;;;;;;;;;;;;;;;;4933905;29;20252;-91
2022/07/10 12:43:48;;;;;;;;;;;;;;;;;;4918338;29;20009;-92
2022/07/10 12:46:15;;;;;;;;;;;;;;;;;;4918758;29;20407;-91
2022/07/10 12:48:41;;;;;;;;;;;;;;;;;;4933917;29;19915;-91
2022/07/10 12:51:06;;;;;;;;;;;;;;;;;;4919901;29;20298;-91
2022/07/10 12:53:32;;;;;;;;;;;;;;;;;;4918564;29;19922;-94
2022/07/10 12:56:00;;;;;;;;;;;;;;;;;;4935163;29;19958;-93
2022/07/10 12:58:25;;;;;;;;;;;;;;;;;;4934711;29;19939;-91
2022/07/10 13:00:51;;;;;;;;;;;;;;;;;;4934659;29;19931;-86
2022/07/10 13:03:17;;;;;;;;;;;;;;;;;;4917176;29;20283;-87
2022/07/10 13:05:42;;;;;;;;;;;;;;;;;;4917620;29;19922;-86
2022/07/10 13:08:10;;;;;;;;;;;;;;;;;;4918694;29;20269;-88
2022/07/10 13:10:36;;;;;;;;;;;;;;;;;;4933095;29;19915;-88
2022/07/10 13:13:01;;;;;;;;;;;;;;;;;;4934160;29;19912;-88
2022/07/10 13:15:27;;;;;;;;;;;;;;;;;;4919402;29;19930;-87
2022/07/10 13:17:52;;;;;;;;;;;;;;;;;;4923461;29;19938;-87
2022/07/10 13:20:17;;;;;;;;;;;;;;;;;;4921437;29;19919;-87
2022/07/10 13:22:43;;;;;;;;;;;;;;;;;;4933935;29;19915;-86
2022/07/10 13:25:08;;;;;;;;;;;;;;;;;;4918406;29;20298;-86
2022/07/10 13:27:33;;;;;;;;;;;;;;;;;;4918964;29;19954;-87
2022/07/10 13:29:59;;;;;;;;;;;;;;;;;;4922009;29;19915;-87
2022/07/10 13:32:25;;;;;;;;;;;;;;;;;;4952181;28;20383;-88
2022/07/10 13:34:50;;;;;;;;;;;;;;;;;;4934265;29;19978;-88
2022/07/10 13:37:15;;;;;;;;;;;;;;;;;;4921202;29;19919;-87
2022/07/10 13:39:41;;;;;;;;;;;;;;;;;;4924072;29;19958;-88
2022/07/10 13:42:06;;;;;;;;;;;;;;;;;;4956093;29;19958;-89
2022/07/10 13:44:32;;;;;;;;;;;;;;;;;;4939130;29;19919;-88
2022/07/10 13:46:57;;;;;;;;;;;;;;;;;;4939181;29;19926;-88
2022/07/10 13:49:23;;;;;;;;;;;;;;;;;;4920595;29;20386;-86
2022/07/10 13:51:49;;;;;;;;;;;;;;;;;;4934129;29;20371;-89
2022/07/10 13:54:15;;;;;;;;;;;;;;;;;;4949374;28;19922;-87
2022/07/10 13:56:43;;;;;;;;;;;;;;;;;;4920345;29;19915;-89
2022/07/10 13:59:08;;;;;;;;;;;;;;;;;;4937159;29;19919;-89
2022/07/10 14:01:34;;;;;;;;;;;;;;;;;;4935699;29;20391;-87
2022/07/10 14:03:59;;;;;;;;;;;;;;;;;;4952087;28;20007;-86
2022/07/10 14:06:25;;;;;;;;;;;;;;;;;;4920081;29;19915;-86
2022/07/10 14:08:50;;;;;;;;;;;;;;;;;;4937020;29;19978;-87
2022/07/10 14:11:17;;;;;;;;;;;;;;;;;;4922677;29;20347;-88
2022/07/10 14:13:43;;;;;;;;;;;;;;;;;;4935865;29;20375;-86
2022/07/10 14:16:08;;;;;;;;;;;;;;;;;;4951144;28;19921;-86
2022/07/10 14:18:44;;;;;;;;;;;;;;;;;;4919898;29;20011;-88
2022/07/10 14:21:09;;;;;;;;;;;;;;;;;;4918236;29;20006;-88
2022/07/10 14:23:35;;;;;;;;;;;;;;;;;;4917618;29;19998;-86
2022/07/10 14:26:00;;;;;;;;;;;;;;;;;;4918895;29;19915;-88
2022/07/10 14:28:26;;;;;;;;;;;;;;;;;;4936211;29;19922;-87
2022/07/10 14:30:51;;;;;;;;;;;;;;;;;;4951524;28;19922;-87
2022/07/10 14:33:17;;;;;;;;;;;;;;;;;;4920725;29;19919;-87
2022/07/10 14:35:42;;;;;;;;;;;;;;;;;;4925089;29;19911;-88
2022/07/10 14:38:07;;;;;;;;;;;;;;;;;;4940317;29;20282;-89
2022/07/10 14:40:33;;;;;;;;;;;;;;;;;;4934776;29;19923;-87
2022/07/10 14:42:58;;;;;;;;;;;;;;;;;;4949339;28;19919;-87
2022/07/10 14:45:31;;;;;;;;;;;;;;;;;;4987818;23;19972;-87
2022/07/10 14:48:02;;;;;;;;;;;;;;;;;;4963591;29;19914;-88
2022/07/10 14:50:28;;;;;;;;;;;;;;;;;;4960307;29;19914;-88
2022/07/10 14:52:54;;;;;;;;;;;;;;;;;;4958528;28;19965;-89
2022/07/10 14:55:26;;;;;;;;;;;;;;;;;;4970898;28;20374;-87
2022/07/10 14:57:54;;;;;;;;;;;;;;;;;;4959627;28;19922;-87
2022/07/10 15:00:23;;;;;;;;;;;;;;;;;;4956213;28;19965;-89
2022/07/10 15:02:50;;;;;;;;;;;;;;;;;;4970536;28;19965;-88
2022/07/10 15:05:16;;;;;;;;;;;;;;;;;;4972099;28;19918;-92
2022/07/10 15:07:49;;;;;;;;;;;;;;;;;;4956331;29;19919;-89
2022/07/10 15:10:16;;;;;;;;;;;;;;;;;;4959673;29;20009;-91
2022/07/10 15:12:44;;;;;;;;;;;;;;;;;;4964321;28;19918;-88
2022/07/10 15:15:11;;;;;;;;;;;;;;;;;;4966597;28;19917;-91
2022/07/10 15:17:37;;;;;;;;;;;;;;;;;;4980524;28;20289;-88
2022/07/10 15:20:03;;;;;;;;;;;;;;;;;;4963361;28;19929;-89
2022/07/10 15:22:28;;;;;;;;;;;;;;;;;;4968150;29;19921;-87
2022/07/10 15:24:53;;;;;;;;;;;;;;;;;;4960234;28;19911;-86
2022/07/10 15:27:19;;;;;;;;;;;;;;;;;;4965600;28;19914;-89
2022/07/10 15:29:44;;;;;;;;;;;;;;;;;;4984054;28;19977;-86
2022/07/10 15:32:10;;;;;;;;;;;;;;;;;;4971910;29;20013;-85
2022/07/10 15:35:03;;;;;;;;;;;;;;;;;;4970207;28;19926;-85
2022/07/10 15:37:31;;;;;;;;;;;;;;;;;;4987717;28;19914;-86
2022/07/10 15:39:59;;;;;;;;;;;;;;;;;;4969776;29;19950;-85
2022/07/10 15:42:25;;;;;;;;;;;;;;;;;;4962638;29;20357;-84
2022/07/10 15:44:51;;;;;;;;;;;;;;;;;;4958265;28;20372;-83
2022/07/10 15:47:19;;;;;;;;;;;;;;;;;;4963018;28;19914;-83
2022/07/10 15:49:44;;;;;;;;;;;;;;;;;;4967038;29;19942;-83
2022/07/10 15:52:09;;;;;;;;;;;;;;;;;;4953442;29;19949;-84
2022/07/10 15:54:35;;;;;;;;;;;;;;;;;;4966632;28;19914;-83
2022/07/10 15:57:01;;;;;;;;;;;;;;;;;;4962343;29;19915;-83
2022/07/10 15:59:27;;;;;;;;;;;;;;;;;;4982800;28;19990;-85
2022/07/10 16:01:52;;;;;;;;;;;;;;;;;;4973786;28;19918;-86
2022/07/10 16:04:18;;;;;;;;;;;;;;;;;;4977903;28;19899;-85
2022/07/10 16:06:44;;;;;;;;;;;;;;;;;;4976703;28;19925;-85
2022/07/10 16:09:09;;;;;;;;;;;;;;;;;;4979997;29;19986;-86
2022/07/10 16:11:35;;;;;;;;;;;;;;;;;;4979850;29;19899;-85
2022/07/10 16:14:00;;;;;;;;;;;;;;;;;;4995180;28;19965;-83
2022/07/10 16:16:26;;;;;;;;;;;;;;;;;;4975650;28;19962;-86
2022/07/10 16:18:53;;;;;;;;;;;;;;;;;;4958419;29;19919;-86
2022/07/10 16:21:18;;;;;;;;;;;;;;;;;;4958882;28;19915;-85
2022/07/10 16:23:43;;;;;;;;;;;;;;;;;;4957112;29;19942;-86
2022/07/10 16:26:11;;;;;;;;;;;;;;;;;;4958175;28;19914;-86
2022/07/10 16:28:37;;;;;;;;;;;;;;;;;;4940807;29;19914;-86
2022/07/10 16:31:02;;;;;;;;;;;;;;;;;;4957021;28;19985;-85
2022/07/10 16:33:28;;;;;;;;;;;;;;;;;;4958025;29;19934;-86
2022/07/10 16:35:53;;;;;;;;;;;;;;;;;;4957580;28;20199;-84
2022/07/10 16:38:19;;;;;;;;;;;;;;;;;;4940530;29;19915;-83
2022/07/10 16:40:45;;;;;;;;;;;;;;;;;;4956822;29;20397;-85
2022/07/10 16:43:11;;;;;;;;;;;;;;;;;;4956816;29;19910;-85
2022/07/10 16:45:36;;;;;;;;;;;;;;;;;;4958068;28;20388;-86
2022/07/10 16:48:01;;;;;;;;;;;;;;;;;;4958526;28;19915;-85
2022/07/10 16:50:27;;;;;;;;;;;;;;;;;;4941890;29;19985;-85
2022/07/10 16:52:52;;;;;;;;;;;;;;;;;;4956399;29;20341;-86
2022/07/10 16:55:18;;;;;;;;;;;;;;;;;;4956619;28;19915;-88
2022/07/10 16:57:43;;;;;;;;;;;;;;;;;;4956684;29;19997;-85
2022/07/10 17:00:09;;;;;;;;;;;;;;;;;;4956071;28;19925;-85
2022/07/10 17:02:34;;;;;;;;;;;;;;;;;;4956946;29;19925;-86
2022/07/10 17:05:04;;;;;;;;;;;;;;;;;;4940817;29;20208;-85
2022/07/10 17:07:30;;;;;;;;;;;;;;;;;;4958308;29;19914;-85
2022/07/10 17:09:56;;;;;;;;;;;;;;;;;;4957904;29;19919;-84
2022/07/10 17:12:21;;;;;;;;;;;;;;;;;;4956977;28;20255;-85
2022/07/10 17:14:47;;;;;;;;;;;;;;;;;;4958471;28;20274;-85
2022/07/10 17:17:12;;;;;;;;;;;;;;;;;;4976233;28;20017;-85
2022/07/10 17:19:38;;;;;;;;;;;;;;;;;;4961734;29;19954;-85
2022/07/10 17:22:06;;;;;;;;;;;;;;;;;;4979958;28;19950;-86
2022/07/10 17:24:32;;;;;;;;;;;;;;;;;;4981677;28;19954;-85
2022/07/10 17:26:57;;;;;;;;;;;;;;;;;;4966569;29;19937;-85